Time;durP1;ratioP1;P1;durP2;ratioP2;P2;SDS_P1;SDS_P2;PMS_P1;PMS_P2;Temp;Humidity;BMP_temperature;BMP_pressure;BME280_temperature;BME280_humidity;BME280_pressure;Samples;Min_cycle;Max_cycle;Signal;HPM_P1;HPM_P2
2024/03/30 00:01:05;;;;;;;8.98;5.50;;;11.60;99.90;;;;;;5008301;28;20208;-69
2024/03/30 00:03:31;;;;;;;6.18;4.95;;;11.60;99.90;;;;;;5008185;28;21041;-67
2024/03/30 00:06:00;;;;;;;7.45;5.20;;;11.60;99.90;;;;;;5009184;28;20633;-70
2024/03/30 00:08:26;;;;;;;6.97;5.28;;;11.60;99.90;;;;;;5008056;28;20199;-70
2024/03/30 00:11:03;;;;;;;14.15;5.50;;;11.60;99.90;;;;;;5010389;28;20286;-68
2024/03/30 00:13:30;;;;;;;8.25;5.80;;;11.60;99.90;;;;;;5009410;28;20194;-69
2024/03/30 00:15:56;;;;;;;7.90;5.63;;;11.50;99.90;;;;;;5007471;28;20184;-68
2024/03/30 00:18:22;;;;;;;7.43;5.82;;;11.60;99.90;;;;;;5011169;28;20247;-69
2024/03/30 00:20:49;;;;;;;7.25;5.25;;;11.50;99.90;;;;;;5007553;28;20181;-69
2024/03/30 00:23:14;;;;;;;11.02;5.90;;;11.50;99.90;;;;;;5009277;28;20552;-68
2024/03/30 00:25:41;;;;;;;6.70;5.45;;;11.50;99.90;;;;;;5012577;28;20181;-70
2024/03/30 00:28:07;;;;;;;7.28;5.00;;;11.40;99.90;;;;;;5007187;28;20201;-68
2024/03/30 00:30:37;;;;;;;8.30;5.30;;;11.40;99.90;;;;;;5008794;28;20296;-69
2024/03/30 00:33:03;;;;;;;7.82;5.03;;;11.40;99.90;;;;;;5004702;28;20286;-69
2024/03/30 00:35:29;;;;;;;8.38;5.10;;;11.40;99.90;;;;;;5024897;28;20239;-69
2024/03/30 00:37:55;;;;;;;9.75;5.32;;;11.40;99.90;;;;;;5009393;28;20212;-69
2024/03/30 00:40:23;;;;;;;8.60;5.60;;;11.40;99.90;;;;;;5006862;28;20228;-68
2024/03/30 00:42:49;;;;;;;8.00;4.90;;;11.30;99.90;;;;;;5006080;28;20229;-68
2024/03/30 00:45:15;;;;;;;11.30;5.53;;;11.30;99.90;;;;;;5009487;28;20199;-69
2024/03/30 00:47:40;;;;;;;7.78;5.47;;;11.20;99.90;;;;;;5007068;28;20366;-68
2024/03/30 00:50:06;;;;;;;8.43;5.07;;;11.20;99.90;;;;;;5011034;28;20787;-69
2024/03/30 00:52:32;;;;;;;7.28;5.55;;;11.10;99.90;;;;;;5025555;28;20200;-69
2024/03/30 00:54:58;;;;;;;8.00;5.38;;;11.10;99.90;;;;;;5008153;28;20199;-69
2024/03/30 00:57:23;;;;;;;9.15;5.53;;;11.10;99.90;;;;;;5005947;28;20214;-69
2024/03/30 00:59:50;;;;;;;6.43;5.03;;;11.10;99.90;;;;;;5009614;28;20670;-68
2024/03/30 01:02:16;;;;;;;7.93;5.03;;;11.10;99.90;;;;;;5007565;28;20200;-69
2024/03/30 01:04:41;;;;;;;7.50;4.80;;;11.20;99.90;;;;;;5011259;28;20227;-68
2024/03/30 01:07:07;;;;;;;7.28;4.82;;;11.20;99.90;;;;;;5006780;28;20204;-68
2024/03/30 01:09:33;;;;;;;6.68;4.47;;;11.30;99.90;;;;;;5006714;28;20200;-69
2024/03/30 01:11:59;;;;;;;6.70;4.72;;;11.30;99.90;;;;;;5006691;28;20188;-67
2024/03/30 01:14:27;;;;;;;11.35;4.97;;;11.40;99.90;;;;;;5005300;28;20203;-69
2024/03/30 01:16:53;;;;;;;6.43;4.30;;;11.40;99.90;;;;;;5007658;28;20239;-69
2024/03/30 01:19:19;;;;;;;5.30;4.20;;;11.40;99.90;;;;;;5008239;28;20176;-70
2024/03/30 01:21:45;;;;;;;5.88;3.80;;;11.50;99.90;;;;;;5008094;28;20192;-70
2024/03/30 01:24:11;;;;;;;5.30;3.95;;;11.50;99.90;;;;;;5011964;28;20204;-67
2024/03/30 01:26:43;;;;;;;4.57;3.80;;;11.60;99.90;;;;;;4976239;28;20188;-68
2024/03/30 01:29:10;;;;;;;5.28;3.33;;;11.60;99.90;;;;;;5009700;28;20200;-68
2024/03/30 01:31:36;;;;;;;5.93;3.33;;;11.60;99.90;;;;;;5010403;28;20192;-69
2024/03/30 01:34:02;;;;;;;4.03;3.05;;;11.60;99.90;;;;;;5007694;28;20693;-69
2024/03/30 01:36:28;;;;;;;4.65;3.10;;;11.60;99.90;;;;;;4991436;28;20227;-68
2024/03/30 01:38:54;;;;;;;4.25;3.03;;;11.70;99.90;;;;;;5009087;28;20189;-69
2024/03/30 01:41:19;;;;;;;4.07;2.85;;;11.60;99.90;;;;;;5021262;28;20200;-69
2024/03/30 01:43:46;;;;;;;6.20;2.88;;;11.60;99.90;;;;;;5007160;28;20193;-69
2024/03/30 01:46:12;;;;;;;4.05;2.78;;;11.60;99.90;;;;;;5008479;28;20253;-69
2024/03/30 01:48:38;;;;;;;3.50;2.83;;;11.70;99.90;;;;;;5005100;28;20604;-68
2024/03/30 01:51:04;;;;;;;3.15;2.55;;;11.70;99.90;;;;;;5007098;28;20283;-68
2024/03/30 01:53:30;;;;;;;3.45;3.05;;;11.70;99.90;;;;;;5004482;28;20238;-70
2024/03/30 01:55:56;;;;;;;6.55;2.75;;;11.80;99.90;;;;;;5024172;28;20197;-69
2024/03/30 01:58:26;;;;;;;3.88;2.80;;;11.80;99.90;;;;;;5024520;28;20684;-68
2024/03/30 02:00:54;;;;;;;4.35;3.00;;;11.80;99.90;;;;;;5006564;28;20199;-69
2024/03/30 02:03:22;;;;;;;5.60;2.78;;;11.80;99.90;;;;;;5005155;28;20185;-69
2024/03/30 02:05:48;;;;;;;2.90;2.50;;;11.80;99.90;;;;;;5018091;28;20183;-68
2024/03/30 02:08:14;;;;;;;5.55;2.92;;;11.80;99.90;;;;;;5006639;28;20192;-69
2024/03/30 02:10:41;;;;;;;3.95;2.50;;;11.80;99.90;;;;;;5009040;28;21318;-70
2024/03/30 02:13:07;;;;;;;3.00;2.47;;;11.90;99.90;;;;;;5007884;28;20208;-68
2024/03/30 02:15:33;;;;;;;3.67;2.50;;;11.80;99.90;;;;;;5005749;28;20193;-68
2024/03/30 02:17:59;;;;;;;5.82;2.53;;;11.80;99.90;;;;;;5006268;28;20688;-69
2024/03/30 02:20:25;;;;;;;3.05;2.53;;;11.80;99.90;;;;;;5007631;28;20851;-69
2024/03/30 02:22:52;;;;;;;3.47;2.70;;;11.80;99.90;;;;;;5005809;28;20183;-67
2024/03/30 02:25:22;;;;;;;4.15;2.38;;;11.80;99.90;;;;;;5007014;28;20185;-70
2024/03/30 02:27:48;;;;;;;3.65;2.47;;;11.80;99.90;;;;;;5005871;28;21019;-70
2024/03/30 02:30:28;;;;;;;4.60;2.60;;;11.80;99.90;;;;;;5011471;28;20280;-68
2024/03/30 02:32:55;;;;;;;4.07;2.50;;;11.80;99.90;;;;;;5007297;28;20253;-69
2024/03/30 02:35:21;;;;;;;4.07;2.60;;;11.70;99.90;;;;;;5008663;28;20184;-68
2024/03/30 02:37:47;;;;;;;5.60;3.63;;;11.70;99.90;;;;;;5006809;28;20211;-68
2024/03/30 02:40:14;;;;;;;5.05;2.90;;;11.70;99.90;;;;;;5005789;28;20192;-70
2024/03/30 02:42:40;;;;;;;6.10;2.50;;;11.70;99.90;;;;;;5021764;28;20679;-69
2024/03/30 02:45:07;;;;;;;4.63;2.90;;;11.70;99.90;;;;;;5006912;28;20181;-68
2024/03/30 02:47:34;;;;;;;4.85;2.95;;;11.70;99.90;;;;;;5008474;28;20188;-69
2024/03/30 02:50:00;;;;;;;4.97;3.20;;;11.70;99.90;;;;;;5006848;28;20665;-70
2024/03/30 02:52:26;;;;;;;7.35;2.72;;;11.70;99.90;;;;;;5011339;28;20185;-70
2024/03/30 02:54:52;;;;;;;3.55;2.50;;;11.60;99.90;;;;;;5012490;28;20195;-68
2024/03/30 02:57:17;;;;;;;4.53;3.00;;;11.60;99.90;;;;;;5010304;28;20294;-70
2024/03/30 02:59:43;;;;;;;4.20;2.72;;;11.60;99.90;;;;;;5027763;28;20188;-69
2024/03/30 03:02:09;;;;;;;3.25;2.70;;;11.60;99.90;;;;;;5010677;28;20193;-67
2024/03/30 03:04:34;;;;;;;4.32;3.08;;;11.60;99.90;;;;;;5023234;28;20196;-66
2024/03/30 03:07:05;;;;;;;6.07;3.00;;;11.60;99.90;;;;;;5009670;28;20709;-69
2024/03/30 03:09:31;;;;;;;6.72;2.50;;;11.60;99.90;;;;;;5010364;28;20192;-72
2024/03/30 03:11:57;;;;;;;4.38;3.20;;;11.60;99.90;;;;;;5011160;28;20204;-70
2024/03/30 03:14:23;;;;;;;4.40;3.10;;;11.50;99.90;;;;;;5005714;28;20203;-67
2024/03/30 03:16:49;;;;;;;6.88;3.45;;;11.50;99.90;;;;;;5007671;28;20219;-69
2024/03/30 03:19:15;;;;;;;4.40;3.00;;;11.40;99.90;;;;;;5010906;28;21022;-67
2024/03/30 03:21:40;;;;;;;6.38;3.15;;;11.50;99.90;;;;;;5010782;28;20189;-69
2024/03/30 03:24:06;;;;;;;5.75;3.03;;;11.50;99.90;;;;;;5010641;28;20195;-69
2024/03/30 03:26:32;;;;;;;5.13;3.10;;;11.40;99.90;;;;;;5009569;28;20192;-69
2024/03/30 03:28:57;;;;;;;4.13;3.47;;;11.40;99.90;;;;;;5009737;28;20192;-68
2024/03/30 03:31:23;;;;;;;6.22;3.90;;;11.40;99.90;;;;;;5010247;28;20192;-69
2024/03/30 03:33:49;;;;;;;5.30;3.55;;;11.40;99.90;;;;;;5010283;28;20192;-68
2024/03/30 03:36:16;;;;;;;5.05;3.50;;;11.30;99.90;;;;;;5009468;28;20236;-70
2024/03/30 03:38:42;;;;;;;4.53;3.63;;;11.30;99.90;;;;;;5013403;28;20212;-68
2024/03/30 03:41:08;;;;;;;5.10;3.90;;;11.30;99.90;;;;;;5009805;28;20270;-69
2024/03/30 03:43:36;;;;;;;5.93;4.07;;;11.30;99.90;;;;;;5012624;28;20188;-69
2024/03/30 03:46:05;;;;;;;8.73;3.97;;;11.30;99.90;;;;;;5010286;28;20531;-68
2024/03/30 03:48:31;;;;;;;6.13;4.47;;;11.30;99.90;;;;;;5008273;28;20566;-68
2024/03/30 03:50:56;;;;;;;6.47;4.18;;;11.30;99.90;;;;;;5008599;28;20188;-70
2024/03/30 03:53:22;;;;;;;7.05;3.92;;;11.30;99.90;;;;;;5012068;28;20204;-69
2024/03/30 03:55:48;;;;;;;9.13;4.80;;;11.30;99.90;;;;;;5007545;28;20590;-69
2024/03/30 03:58:14;;;;;;;6.70;4.13;;;11.30;99.90;;;;;;5007083;28;20333;-69
2024/03/30 04:00:40;;;;;;;6.47;4.28;;;11.30;99.90;;;;;;5007180;28;20200;-68
2024/03/30 04:03:06;;;;;;;6.15;4.85;;;11.20;99.90;;;;;;5009733;28;20195;-69
2024/03/30 04:05:35;;;;;;;5.65;4.57;;;11.20;99.90;;;;;;5010491;28;20199;-67
2024/03/30 04:08:02;;;;;;;6.38;4.72;;;11.20;99.90;;;;;;5019556;28;20200;-69
2024/03/30 04:10:27;;;;;;;5.38;4.40;;;11.20;99.90;;;;;;5025166;28;20193;-69
2024/03/30 04:12:53;;;;;;;8.40;4.82;;;11.20;99.90;;;;;;4991754;28;20263;-69
2024/03/30 04:15:19;;;;;;;6.63;4.65;;;11.20;99.90;;;;;;5023132;28;20212;-70
2024/03/30 04:17:45;;;;;;;6.38;4.85;;;11.20;99.90;;;;;;5011108;28;20247;-69
2024/03/30 04:20:11;;;;;;;5.18;4.60;;;11.20;99.90;;;;;;5011187;28;20290;-69
2024/03/30 04:22:37;;;;;;;5.85;4.60;;;11.20;99.90;;;;;;5007793;28;20291;-69
2024/03/30 04:25:03;;;;;;;6.20;4.45;;;11.20;99.90;;;;;;5010349;28;20767;-70
2024/03/30 04:27:29;;;;;;;7.95;4.88;;;11.20;99.90;;;;;;5007350;28;20315;-70
2024/03/30 04:29:56;;;;;;;6.25;5.03;;;11.20;99.90;;;;;;5013780;28;20291;-68
2024/03/30 04:32:21;;;;;;;9.95;5.53;;;11.20;99.90;;;;;;5005913;28;20196;-70
2024/03/30 04:34:47;;;;;;;6.40;5.20;;;11.20;99.90;;;;;;5008016;28;20679;-67
2024/03/30 04:37:13;;;;;;;7.75;5.30;;;11.20;99.90;;;;;;5023485;28;20228;-69
2024/03/30 04:39:41;;;;;;;8.98;5.18;;;11.10;99.90;;;;;;5007417;28;20195;-68
2024/03/30 04:42:07;;;;;;;6.90;5.65;;;11.20;99.90;;;;;;5007169;28;20613;-69
2024/03/30 04:44:33;;;;;;;7.80;5.50;;;11.10;99.90;;;;;;5025608;28;20211;-69
2024/03/30 04:46:58;;;;;;;8.10;5.93;;;11.10;99.90;;;;;;5007572;28;20185;-68
2024/03/30 04:49:24;;;;;;;7.30;5.97;;;11.10;99.90;;;;;;5008171;28;20196;-69
2024/03/30 04:51:50;;;;;;;8.88;6.13;;;11.10;99.90;;;;;;5010712;28;20566;-69
2024/03/30 04:54:16;;;;;;;10.00;6.68;;;11.00;99.90;;;;;;5008359;28;20206;-68
2024/03/30 04:56:42;;;;;;;8.68;6.90;;;11.10;99.90;;;;;;5009056;28;20216;-68
2024/03/30 04:59:07;;;;;;;10.35;7.22;;;11.00;99.90;;;;;;5011634;28;20276;-67
2024/03/30 05:01:33;;;;;;;9.63;7.10;;;11.00;99.90;;;;;;5006502;28;20700;-70
2024/03/30 05:03:59;;;;;;;9.32;7.40;;;11.00;99.90;;;;;;5022399;28;21167;-70
2024/03/30 05:06:25;;;;;;;9.07;6.47;;;11.00;99.90;;;;;;5008606;28;20188;-69
2024/03/30 05:08:52;;;;;;;9.63;7.00;;;11.00;99.90;;;;;;5006053;28;20536;-70
2024/03/30 05:11:17;;;;;;;9.18;6.82;;;11.00;99.90;;;;;;5008977;28;20191;-69
2024/03/30 05:13:43;;;;;;;8.25;6.95;;;11.00;99.90;;;;;;5008209;28;20708;-70
2024/03/30 05:16:09;;;;;;;9.13;7.15;;;10.90;99.90;;;;;;5007997;28;20662;-69
2024/03/30 05:18:34;;;;;;;11.10;7.80;;;10.90;99.90;;;;;;5005948;28;20216;-68
2024/03/30 05:21:01;;;;;;;9.35;7.35;;;10.90;99.90;;;;;;5007229;28;20197;-70
2024/03/30 05:23:32;;;;;;;10.05;7.85;;;10.90;99.90;;;;;;5010389;28;20212;-69
2024/03/30 05:26:00;;;;;;;10.88;8.32;;;10.90;99.90;;;;;;5008360;28;20192;-69
2024/03/30 05:28:28;;;;;;;9.93;8.13;;;10.90;99.90;;;;;;5011181;28;20188;-68
2024/03/30 05:30:54;;;;;;;12.48;8.82;;;10.90;99.90;;;;;;5009153;28;20794;-68
2024/03/30 05:33:22;;;;;;;11.10;8.88;;;10.90;99.90;;;;;;5009474;28;20193;-69
2024/03/30 05:35:48;;;;;;;13.23;9.68;;;10.90;99.90;;;;;;5024533;28;20224;-69
2024/03/30 05:38:15;;;;;;;17.13;9.60;;;10.90;99.90;;;;;;5007321;28;20223;-70
2024/03/30 05:40:42;;;;;;;12.15;9.90;;;10.90;99.90;;;;;;5008726;28;20289;-69
2024/03/30 05:43:08;;;;;;;13.98;10.43;;;10.90;99.90;;;;;;5008030;28;20218;-68
2024/03/30 05:45:36;;;;;;;12.40;10.48;;;10.90;99.90;;;;;;5008659;28;20196;-69
2024/03/30 05:48:02;;;;;;;14.77;10.65;;;10.90;99.90;;;;;;5007692;28;20688;-69
2024/03/30 05:50:29;;;;;;;18.58;13.50;;;10.90;99.90;;;;;;5004568;28;20326;-68
2024/03/30 05:52:55;;;;;;;16.08;12.50;;;10.90;99.90;;;;;;5006125;28;20189;-69
2024/03/30 05:55:20;;;;;;;17.35;12.60;;;10.90;99.90;;;;;;5009371;28;20474;-68
2024/03/30 05:57:47;;;;;;;14.27;11.07;;;10.90;99.90;;;;;;5006619;28;20221;-68
2024/03/30 06:00:14;;;;;;;24.75;15.45;;;11.00;99.90;;;;;;5006684;28;20216;-68
2024/03/30 06:02:41;;;;;;;14.45;11.38;;;10.90;99.90;;;;;;5007930;28;20201;-70
2024/03/30 06:05:07;;;;;;;14.20;11.55;;;11.00;99.90;;;;;;5009139;28;20660;-68
2024/03/30 06:07:35;;;;;;;17.10;12.40;;;11.00;99.90;;;;;;5008601;28;20203;-68
2024/03/30 06:10:01;;;;;;;15.25;11.05;;;11.00;99.90;;;;;;5012829;28;20348;-68
2024/03/30 06:12:27;;;;;;;14.85;11.95;;;11.00;99.90;;;;;;5009961;28;20204;-68
2024/03/30 06:14:53;;;;;;;17.73;12.98;;;11.00;99.90;;;;;;5007946;28;20192;-69
2024/03/30 06:17:18;;;;;;;15.73;11.50;;;11.00;99.90;;;;;;5009712;28;20578;-69
2024/03/30 06:19:44;;;;;;;14.90;11.70;;;11.00;99.90;;;;;;5023368;28;20275;-69
2024/03/30 06:22:10;;;;;;;17.05;14.00;;;11.00;99.90;;;;;;5008577;28;20647;-69
2024/03/30 06:24:38;;;;;;;17.25;13.80;;;11.00;99.90;;;;;;5007203;28;20188;-67
2024/03/30 06:27:06;;;;;;;19.50;15.05;;;11.00;99.90;;;;;;5025454;28;20208;-68
2024/03/30 06:29:32;;;;;;;17.73;14.00;;;11.00;99.90;;;;;;5012070;28;20196;-68
2024/03/30 06:31:58;;;;;;;17.35;13.77;;;11.00;99.90;;;;;;5012746;28;20776;-68
2024/03/30 06:34:24;;;;;;;17.42;14.55;;;11.00;99.90;;;;;;5010028;28;20201;-68
2024/03/30 06:36:50;;;;;;;17.77;14.32;;;11.10;99.90;;;;;;5010838;28;20242;-68
2024/03/30 06:39:16;;;;;;;20.75;15.10;;;11.10;99.90;;;;;;5012091;28;20810;-68
2024/03/30 06:44:26;;;;;;;26.13;15.85;;;11.10;99.90;;;;;;5010029;28;20270;-69
2024/03/30 06:46:52;;;;;;;21.00;16.02;;;11.10;99.90;;;;;;5011714;28;20208;-70
2024/03/30 06:49:17;;;;;;;20.23;15.90;;;11.10;99.90;;;;;;5016801;28;20204;-68
2024/03/30 06:51:43;;;;;;;20.95;16.48;;;11.10;99.90;;;;;;5017473;28;20281;-67
2024/03/30 06:54:09;;;;;;;20.77;16.15;;;11.10;99.90;;;;;;5009595;28;20196;-68
2024/03/30 06:56:34;;;;;;;22.52;16.63;;;11.10;99.90;;;;;;5008914;28;20192;-67
2024/03/30 06:59:00;;;;;;;20.60;16.38;;;11.10;99.90;;;;;;5016182;28;20199;-68
2024/03/30 07:01:27;;;;;;;22.85;16.17;;;11.10;99.90;;;;;;5014786;28;20669;-67
2024/03/30 07:03:53;;;;;;;24.70;18.00;;;11.10;99.90;;;;;;5010943;28;20192;-69
2024/03/30 07:06:19;;;;;;;25.70;17.42;;;11.20;99.90;;;;;;5012928;28;20193;-68
2024/03/30 07:08:45;;;;;;;22.88;18.02;;;11.20;99.90;;;;;;5012182;28;20196;-67
2024/03/30 07:11:10;;;;;;;25.70;18.55;;;11.20;99.90;;;;;;5011814;28;20216;-68
2024/03/30 07:13:36;;;;;;;23.67;17.85;;;11.30;99.90;;;;;;5026477;28;20708;-66
2024/03/30 07:16:02;;;;;;;25.33;17.90;;;11.30;99.90;;;;;;5010932;28;20204;-68
2024/03/30 07:18:28;;;;;;;24.48;17.50;;;11.30;99.90;;;;;;5010219;28;20291;-68
2024/03/30 07:20:53;;;;;;;25.73;18.17;;;11.40;99.90;;;;;;5009333;28;20196;-67
2024/03/30 07:23:20;;;;;;;24.95;17.35;;;11.30;99.90;;;;;;5011911;28;20280;-69
2024/03/30 07:25:46;;;;;;;26.17;17.67;;;11.40;99.90;;;;;;5015696;28;20195;-68
2024/03/30 07:28:12;;;;;;;22.52;16.92;;;11.40;99.90;;;;;;5014760;28;21189;-71
2024/03/30 07:30:43;;;;;;;24.33;18.30;;;11.40;99.90;;;;;;5008506;28;20191;-69
2024/03/30 07:33:09;;;;;;;23.10;18.00;;;11.40;99.90;;;;;;5009476;28;20777;-67
2024/03/30 07:35:35;;;;;;;22.23;17.38;;;11.40;99.90;;;;;;5012037;28;20339;-69
2024/03/30 07:38:01;;;;;;;24.58;17.95;;;11.40;99.90;;;;;;5013163;28;20324;-68
2024/03/30 07:40:27;;;;;;;25.45;17.50;;;11.50;99.90;;;;;;5014294;28;20195;-69
2024/03/30 07:42:52;;;;;;;22.35;17.00;;;11.50;99.90;;;;;;5013468;28;20183;-68
2024/03/30 07:45:18;;;;;;;24.58;17.77;;;11.60;99.90;;;;;;5015774;28;20184;-69
2024/03/30 07:47:44;;;;;;;25.80;17.35;;;11.60;99.90;;;;;;5015347;28;20374;-68
2024/03/30 07:50:10;;;;;;;23.70;18.45;;;11.60;99.90;;;;;;5010156;28;20211;-69
2024/03/30 07:52:36;;;;;;;24.70;17.98;;;11.60;99.90;;;;;;5025945;28;20200;-70
2024/03/30 07:55:02;;;;;;;23.58;17.05;;;11.60;99.90;;;;;;5011057;28;20188;-69
2024/03/30 07:57:27;;;;;;;23.15;17.50;;;11.70;99.90;;;;;;5011066;28;20567;-69
2024/03/30 07:59:53;;;;;;;23.33;17.95;;;11.70;99.90;;;;;;5027137;28;20337;-68
2024/03/30 08:02:19;;;;;;;25.05;17.42;;;11.80;99.90;;;;;;5025385;28;20242;-68
2024/03/30 08:04:45;;;;;;;25.27;17.00;;;11.90;99.90;;;;;;5006048;28;20327;-68
2024/03/30 08:07:10;;;;;;;26.55;17.33;;;12.00;99.90;;;;;;5011050;28;20205;-67
2024/03/30 08:09:36;;;;;;;21.42;16.55;;;12.10;99.90;;;;;;5008695;28;20196;-68
2024/03/30 08:12:02;;;;;;;20.60;15.82;;;12.20;99.90;;;;;;5009338;28;20208;-71
2024/03/30 08:14:28;;;;;;;22.85;15.70;;;12.30;99.90;;;;;;5007592;28;20244;-69
2024/03/30 08:16:54;;;;;;;22.77;15.18;;;12.40;99.90;;;;;;5028449;28;21040;-68
2024/03/30 08:19:19;;;;;;;19.45;14.57;;;12.50;99.90;;;;;;5012944;28;20181;-67
2024/03/30 08:21:47;;;;;;;19.83;14.52;;;12.50;99.90;;;;;;5026825;28;20197;-68
2024/03/30 08:24:12;;;;;;;18.67;14.07;;;12.50;99.90;;;;;;5009574;28;20196;-67
2024/03/30 08:26:38;;;;;;;18.67;13.38;;;12.50;99.90;;;;;;5013229;28;20195;-65
2024/03/30 08:29:04;;;;;;;16.52;12.80;;;12.60;99.90;;;;;;5005345;28;20195;-69
2024/03/30 08:31:30;;;;;;;16.90;11.77;;;12.60;99.90;;;;;;5007137;28;20204;-67
2024/03/30 08:33:56;;;;;;;14.75;10.30;;;12.70;99.90;;;;;;5009355;28;20192;-68
2024/03/30 08:36:22;;;;;;;11.73;9.50;;;12.80;99.90;;;;;;5024709;28;20326;-68
2024/03/30 08:38:48;;;;;;;11.68;9.68;;;12.80;99.90;;;;;;5010444;28;20242;-69
2024/03/30 08:41:14;;;;;;;11.80;9.02;;;12.90;99.90;;;;;;5013089;28;20230;-67
2024/03/30 08:43:40;;;;;;;10.88;8.82;;;13.00;99.90;;;;;;5008623;28;20200;-67
2024/03/30 08:46:06;;;;;;;11.63;8.80;;;13.00;99.90;;;;;;5010519;28;20196;-67
2024/03/30 08:48:34;;;;;;;12.25;9.18;;;13.00;99.90;;;;;;5015432;28;20560;-67
2024/03/30 08:51:01;;;;;;;17.50;9.45;;;13.00;99.90;;;;;;5026421;28;20237;-67
2024/03/30 08:53:28;;;;;;;12.07;8.80;;;13.00;99.90;;;;;;5012012;28;20189;-69
2024/03/30 08:55:58;;;;;;;13.85;9.57;;;13.00;99.90;;;;;;5004446;28;20189;-69
2024/03/30 08:58:25;;;;;;;11.77;8.95;;;13.00;99.90;;;;;;5012406;28;20307;-69
2024/03/30 09:00:50;;;;;;;13.32;10.02;;;13.00;99.90;;;;;;5010839;28;21098;-69
2024/03/30 09:03:16;;;;;;;11.38;8.65;;;13.00;99.90;;;;;;5016359;28;20196;-69
2024/03/30 09:05:44;;;;;;;11.25;8.75;;;13.10;99.90;;;;;;5013929;28;20262;-70
2024/03/30 09:08:10;;;;;;;11.02;8.20;;;13.20;99.90;;;;;;5012068;28;20543;-68
2024/03/30 09:10:36;;;;;;;10.10;8.23;;;13.20;99.90;;;;;;5009902;28;20188;-69
2024/03/30 09:13:01;;;;;;;10.95;8.95;;;13.30;99.90;;;;;;5010107;28;20197;-68
2024/03/30 09:15:28;;;;;;;10.65;8.30;;;13.50;99.90;;;;;;5010030;28;20562;-68
2024/03/30 09:17:53;;;;;;;12.57;8.50;;;13.50;99.90;;;;;;5013292;28;20235;-67
2024/03/30 09:20:19;;;;;;;11.18;8.70;;;13.70;99.90;;;;;;5013881;28;20192;-67
2024/03/30 09:22:45;;;;;;;10.18;7.88;;;13.80;99.90;;;;;;5015606;28;20211;-68
2024/03/30 09:25:14;;;;;;;11.45;8.40;;;13.90;99.90;;;;;;5014658;28;20279;-68
2024/03/30 09:27:43;;;;;;;12.88;8.00;;;14.00;99.90;;;;;;5014300;28;20228;-68
2024/03/30 09:30:10;;;;;;;10.13;8.02;;;14.00;99.90;;;;;;5013159;28;20331;-69
2024/03/30 09:32:39;;;;;;;9.70;7.55;;;14.10;99.90;;;;;;5012150;28;20287;-66
2024/03/30 09:35:07;;;;;;;10.43;7.90;;;14.20;99.90;;;;;;5013242;28;20667;-70
2024/03/30 09:37:33;;;;;;;9.02;7.45;;;14.20;99.90;;;;;;5013300;28;20689;-66
2024/03/30 09:39:58;;;;;;;10.23;7.90;;;14.20;99.90;;;;;;5010923;28;20212;-67
2024/03/30 09:42:40;;;;;;;26.48;18.30;;;14.30;99.90;;;;;;5014949;28;20192;-67
2024/03/30 09:45:12;;;;;;;10.02;8.18;;;14.20;99.90;;;;;;5013138;28;20230;-70
2024/03/30 09:47:42;;;;;;;14.20;7.60;;;14.30;99.90;;;;;;5012447;28;20204;-71
2024/03/30 09:50:09;;;;;;;11.02;7.50;;;14.40;99.90;;;;;;5011548;28;20204;-68
2024/03/30 09:52:39;;;;;;;9.00;7.22;;;14.50;99.90;;;;;;5009630;28;20211;-68
2024/03/30 09:55:10;;;;;;;9.13;6.55;;;14.50;99.90;;;;;;5015245;28;20299;-68
2024/03/30 09:57:39;;;;;;;8.88;6.50;;;14.50;99.90;;;;;;5013118;28;20657;-69
2024/03/30 10:00:07;;;;;;;8.43;6.53;;;14.60;99.90;;;;;;5012050;28;20250;-67
2024/03/30 10:02:38;;;;;;;5.95;4.93;;;14.60;99.90;;;;;;5005994;28;20698;-69
2024/03/30 10:05:06;;;;;;;9.07;5.18;;;14.70;99.90;;;;;;5027803;28;20258;-68
2024/03/30 10:07:36;;;;;;;7.63;5.72;;;14.70;99.90;;;;;;5012574;28;20222;-68
2024/03/30 10:10:11;;;;;;;6.30;4.97;;;14.70;99.90;;;;;;5010425;28;20282;-69
2024/03/30 10:13:15;;;;;;;7.28;4.88;;;14.70;99.90;;;;;;5010910;28;20570;-68
2024/03/30 10:15:52;;;;;;;9.68;4.90;;;14.80;99.90;;;;;;5006450;28;20208;-68
2024/03/30 10:18:18;;;;;;;8.50;5.05;;;14.80;99.90;;;;;;5013204;28;20675;-70
2024/03/30 10:20:44;;;;;;;5.97;5.03;;;14.90;99.90;;;;;;5009961;28;20650;-67
2024/03/30 10:23:10;;;;;;;7.03;4.47;;;15.00;99.90;;;;;;5027538;28;20309;-69
2024/03/30 10:25:36;;;;;;;5.72;4.50;;;15.10;99.90;;;;;;5027462;28;20275;-68
2024/03/30 10:28:04;;;;;;;5.78;4.90;;;15.20;99.90;;;;;;5013070;28;20196;-68
2024/03/30 10:30:31;;;;;;;5.25;4.20;;;15.20;99.90;;;;;;5011934;28;20188;-70
2024/03/30 10:33:04;;;;;;;5.82;4.95;;;15.30;99.90;;;;;;5010448;28;20621;-69
2024/03/30 10:35:29;;;;;;;6.85;4.78;;;15.30;99.90;;;;;;5009502;28;20315;-69
2024/03/30 10:37:56;;;;;;;8.25;5.10;;;15.40;99.90;;;;;;5013414;28;20322;-69
2024/03/30 10:40:24;;;;;;;8.15;4.85;;;15.50;99.90;;;;;;5011127;28;20196;-69
2024/03/30 10:42:54;;;;;;;6.80;4.80;;;15.60;99.90;;;;;;5009931;28;20279;-68
2024/03/30 10:45:20;;;;;;;8.40;5.45;;;15.70;99.90;;;;;;5011794;28;20267;-68
2024/03/30 10:47:46;;;;;;;7.60;4.53;;;15.80;99.90;;;;;;5012878;28;20315;-69
2024/03/30 10:50:12;;;;;;;7.70;4.90;;;15.80;99.90;;;;;;5012868;28;20192;-69
2024/03/30 10:52:39;;;;;;;6.20;4.72;;;15.90;99.90;;;;;;5014583;28;20239;-70
2024/03/30 10:55:05;;;;;;;6.68;4.38;;;15.90;99.90;;;;;;5014674;28;20192;-70
2024/03/30 10:57:31;;;;;;;8.45;4.80;;;16.00;99.90;;;;;;5013118;28;20208;-69
2024/03/30 11:00:01;;;;;;;10.55;4.53;;;16.00;99.90;;;;;;5011273;28;20203;-68
2024/03/30 11:02:29;;;;;;;7.85;4.30;;;16.10;99.90;;;;;;5018819;28;20287;-68
2024/03/30 11:04:56;;;;;;;9.15;5.47;;;16.00;99.90;;;;;;5012938;28;20193;-70
2024/03/30 11:07:23;;;;;;;8.38;4.63;;;16.00;99.90;;;;;;5012828;28;20206;-68
2024/03/30 11:09:49;;;;;;;8.98;4.43;;;16.00;99.90;;;;;;5014560;28;20699;-68
2024/03/30 11:12:15;;;;;;;10.55;4.90;;;16.00;99.90;;;;;;5012026;28;20188;-69
2024/03/30 11:14:42;;;;;;;12.05;4.68;;;16.00;99.90;;;;;;5019712;28;20653;-68
2024/03/30 11:17:18;;;;;;;13.68;4.85;;;16.00;99.90;;;;;;5031915;28;20250;-68
2024/03/30 11:20:04;;;;;;;15.80;5.03;;;16.00;99.90;;;;;;5018042;28;20279;-68
2024/03/30 11:22:37;;;;;;;13.73;4.57;;;16.10;99.90;;;;;;5024949;28;20187;-67
2024/03/30 11:25:08;;;;;;;12.52;4.70;;;16.10;99.90;;;;;;5018960;28;20203;-69
2024/03/30 11:27:39;;;;;;;12.95;4.88;;;16.30;99.90;;;;;;5019023;28;20224;-70
2024/03/30 11:30:26;;;;;;;14.98;4.88;;;16.40;99.90;;;;;;5015308;28;20748;-68
2024/03/30 11:33:00;;;;;;;21.25;8.77;;;16.60;99.90;;;;;;5018019;28;20218;-70
2024/03/30 11:35:30;;;;;;;17.00;5.72;;;16.70;99.90;;;;;;5030171;28;20225;-69
2024/03/30 11:38:00;;;;;;;21.00;4.65;;;16.80;99.90;;;;;;5017767;28;20208;-69
2024/03/30 11:40:30;;;;;;;14.73;4.30;;;17.00;99.90;;;;;;5017756;28;20553;-68
2024/03/30 11:43:05;;;;;;;9.88;3.60;;;17.20;99.90;;;;;;5016564;28;21162;-70
2024/03/30 11:45:34;;;;;;;17.60;5.03;;;17.30;99.90;;;;;;5015924;28;20191;-70
2024/03/30 11:48:01;;;;;;;18.35;6.97;;;17.40;99.90;;;;;;5018706;28;20184;-67
2024/03/30 11:50:27;;;;;;;16.95;4.55;;;17.40;99.90;;;;;;5017470;28;20700;-69
2024/03/30 11:52:53;;;;;;;20.38;4.90;;;17.50;99.90;;;;;;5016893;28;20191;-69
2024/03/30 11:55:31;;;;;;;19.55;4.80;;;17.50;99.90;;;;;;5019255;28;20195;-69
2024/03/30 11:58:01;;;;;;;22.80;4.10;;;17.60;99.90;;;;;;5015448;28;20216;-69
2024/03/30 12:00:31;;;;;;;24.38;3.95;;;17.60;99.90;;;;;;5012025;28;20241;-69
2024/03/30 12:03:02;;;;;;;19.83;3.92;;;17.70;99.90;;;;;;5017492;28;20289;-69
2024/03/30 12:05:29;;;;;;;28.40;4.15;;;17.70;99.90;;;;;;5016750;28;20300;-69
2024/03/30 12:07:58;;;;;;;31.17;3.95;;;17.80;99.90;;;;;;5012407;28;20242;-68
2024/03/30 12:10:26;;;;;;;23.45;3.53;;;17.80;99.90;;;;;;5017076;28;20199;-68
2024/03/30 12:12:59;;;;;;;24.92;3.83;;;17.80;99.90;;;;;;5014542;28;20211;-69
2024/03/30 12:15:27;;;;;;;35.40;4.30;;;17.90;99.90;;;;;;5014587;28;20250;-69
2024/03/30 12:17:53;;;;;;;45.25;4.50;;;17.90;99.90;;;;;;5011012;28;20249;-72
2024/03/30 12:20:19;;;;;;;24.25;4.18;;;18.00;99.90;;;;;;5011834;28;20228;-70
2024/03/30 12:22:45;;;;;;;30.55;4.63;;;18.10;99.90;;;;;;5006560;28;20216;-70
2024/03/30 12:25:12;;;;;;;31.02;4.38;;;18.10;99.90;;;;;;5007784;28;20262;-68
2024/03/30 12:27:41;;;;;;;35.45;4.63;;;18.20;99.90;;;;;;5010353;28;20208;-68
2024/03/30 12:30:07;;;;;;;36.70;4.28;;;18.20;99.90;;;;;;5008998;28;20197;-70
2024/03/30 12:32:34;;;;;;;35.60;4.53;;;18.30;99.90;;;;;;5016195;28;20199;-69
2024/03/30 12:35:00;;;;;;;35.33;4.32;;;18.40;99.90;;;;;;5011246;28;20216;-69
2024/03/30 12:37:26;;;;;;;26.95;4.22;;;18.50;99.90;;;;;;5013390;28;20753;-68
2024/03/30 12:39:52;;;;;;;39.72;4.78;;;18.50;99.90;;;;;;5012173;28;20212;-68
2024/03/30 12:42:21;;;;;;;34.80;4.78;;;18.60;99.90;;;;;;5014951;28;20223;-68